Terminal Aerodrome Forecast
Issued by NWS

Home | Current Version | Previous Version | Text Only | Print | Product List | Glossary On
Versions: 1 2 3 4 5 6 7 8 9 10 11 12 13 14 15 16 17
662
FTUS43 KMQT 271724
TAFIWD
TAF
KIWD 271724Z 2718/2818 30010G20KT 4SM -SHRA OVC008
      TEMPO 2719/2723 6SM -SHRA OVC010
     FM272300 32010KT 5SM -SHRA OVC010
     FM280300 35008KT 5SM -SHRA OVC010
     FM280500 36009KT 5SM -SHRA OVC008
     FM281000 03010KT 6SM -SHRA OVC008
     FM281400 03009KT P6SM VCSH OVC010=

USA.gov is the U.S. government's official web portal to all federal, state and local government web resources and services.